EGPD/ABZ METAR and TAF weather

Enter ICAO airport designator
Station Type Date Time Source
EGPD METAR 2019/06/26 18:20 UTC NOAA

EGPD 261820Z VRB03KT 9999 FEW031 17/11 Q1031


Station Type Date Time Source
EGPD Decoded METAR 2019/06/26 18:20 UTC NOAA

Aberdeen / Dyce, United Kingdom (EGPD) 57-12N 002-13W 0M
Jun 26, 2019 - 02:20 PM EDT / 2019.06.26 1820 UTC
Wind: Variable at 3 MPH (3 KT):0
Visibility: greater than 7 mile(s):0
Sky conditions: mostly clear
Temperature: 62 F (17 C)
Dew Point: 51 F (11 C)
Relative Humidity: 67%
Pressure (altimeter): 30.45 in. Hg (1031 hPa)
ob: EGPD 261820Z VRB03KT 9999 FEW031 17/11 Q1031
cycle: 18

Station Type Date Time Source
EGPD TAF 2019/06/26 18:06 UTC NOAA

TAF EGPD 261701Z 2618/2718 35006KT 9999 FEW040 PROB30
TEMPO 2702/2707 7000 BKN012 PROB30
TEMPO 2715/2718 BKN014

Example: see airport list